sensor_id;sensor_type;location;lat;lon;timestamp;P1;durP1;ratioP1;P2;durP2;ratioP2
69712;SDS011;56980;51.826;4.424;2022-08-19T00:02:21;6.93;;;5.00;;
69712;SDS011;56980;51.826;4.424;2022-08-19T00:04:47;6.88;;;4.82;;
69712;SDS011;56980;51.826;4.424;2022-08-19T00:07:17;8.77;;;5.00;;
69712;SDS011;56980;51.826;4.424;2022-08-19T00:09:45;9.80;;;5.10;;
69712;SDS011;56980;51.826;4.424;2022-08-19T00:12:10;8.67;;;4.77;;
69712;SDS011;56980;51.826;4.424;2022-08-19T00:14:36;8.73;;;5.05;;
69712;SDS011;56980;51.826;4.424;2022-08-19T00:17:03;6.65;;;4.40;;
69712;SDS011;56980;51.826;4.424;2022-08-19T00:19:31;7.73;;;4.93;;
69712;SDS011;56980;51.826;4.424;2022-08-19T00:21:56;8.25;;;5.65;;
69712;SDS011;56980;51.826;4.424;2022-08-19T00:24:22;9.57;;;5.70;;
69712;SDS011;56980;51.826;4.424;2022-08-19T00:26:47;8.27;;;5.70;;
69712;SDS011;56980;51.826;4.424;2022-08-19T00:29:14;6.93;;;5.18;;
69712;SDS011;56980;51.826;4.424;2022-08-19T00:31:41;6.95;;;5.35;;
69712;SDS011;56980;51.826;4.424;2022-08-19T00:34:07;10.67;;;6.50;;
69712;SDS011;56980;51.826;4.424;2022-08-19T00:36:33;10.52;;;5.65;;
69712;SDS011;56980;51.826;4.424;2022-08-19T00:38:59;10.23;;;6.40;;
69712;SDS011;56980;51.826;4.424;2022-08-19T00:41:25;9.55;;;6.35;;
69712;SDS011;56980;51.826;4.424;2022-08-19T00:44:01;10.00;;;6.77;;
69712;SDS011;56980;51.826;4.424;2022-08-19T00:46:29;14.35;;;8.20;;
69712;SDS011;56980;51.826;4.424;2022-08-19T00:48:55;9.00;;;6.60;;
69712;SDS011;56980;51.826;4.424;2022-08-19T00:51:22;10.98;;;7.15;;
69712;SDS011;56980;51.826;4.424;2022-08-19T00:53:51;14.32;;;8.20;;
69712;SDS011;56980;51.826;4.424;2022-08-19T00:56:17;11.68;;;7.65;;
69712;SDS011;56980;51.826;4.424;2022-08-19T00:58:43;14.00;;;8.17;;
69712;SDS011;56980;51.826;4.424;2022-08-19T01:01:09;15.35;;;11.10;;
69712;SDS011;56980;51.826;4.424;2022-08-19T01:03:34;14.57;;;9.30;;
69712;SDS011;56980;51.826;4.424;2022-08-19T01:06:00;14.27;;;8.80;;
69712;SDS011;56980;51.826;4.424;2022-08-19T01:08:25;12.97;;;8.77;;
69712;SDS011;56980;51.826;4.424;2022-08-19T01:10:55;15.23;;;9.33;;
69712;SDS011;56980;51.826;4.424;2022-08-19T01:13:23;15.70;;;10.00;;
69712;SDS011;56980;51.826;4.424;2022-08-19T01:15:59;13.80;;;9.20;;
69712;SDS011;56980;51.826;4.424;2022-08-19T01:18:27;16.03;;;8.87;;
69712;SDS011;56980;51.826;4.424;2022-08-19T01:20:54;14.30;;;9.43;;
69712;SDS011;56980;51.826;4.424;2022-08-19T01:23:23;15.73;;;10.38;;
69712;SDS011;56980;51.826;4.424;2022-08-19T01:26:07;13.68;;;9.15;;
69712;SDS011;56980;51.826;4.424;2022-08-19T01:28:35;15.93;;;9.80;;
69712;SDS011;56980;51.826;4.424;2022-08-19T01:31:02;14.33;;;10.27;;
69712;SDS011;56980;51.826;4.424;2022-08-19T01:33:27;12.98;;;8.70;;
69712;SDS011;56980;51.826;4.424;2022-08-19T01:36:03;13.02;;;8.80;;
69712;SDS011;56980;51.826;4.424;2022-08-19T01:38:36;14.10;;;9.82;;
69712;SDS011;56980;51.826;4.424;2022-08-19T01:41:04;12.75;;;8.90;;
69712;SDS011;56980;51.826;4.424;2022-08-19T01:43:30;14.90;;;10.07;;
69712;SDS011;56980;51.826;4.424;2022-08-19T01:45:57;21.90;;;11.85;;
69712;SDS011;56980;51.826;4.424;2022-08-19T01:48:22;26.50;;;13.20;;
69712;SDS011;56980;51.826;4.424;2022-08-19T01:50:48;18.02;;;12.15;;
69712;SDS011;56980;51.826;4.424;2022-08-19T01:53:14;26.23;;;15.05;;
69712;SDS011;56980;51.826;4.424;2022-08-19T01:55:40;30.57;;;18.13;;
69712;SDS011;56980;51.826;4.424;2022-08-19T01:58:17;30.70;;;18.27;;
69712;SDS011;56980;51.826;4.424;2022-08-19T02:00:46;34.80;;;20.13;;
69712;SDS011;56980;51.826;4.424;2022-08-19T02:03:13;39.17;;;20.17;;
69712;SDS011;56980;51.826;4.424;2022-08-19T02:05:38;39.65;;;21.10;;
69712;SDS011;56980;51.826;4.424;2022-08-19T02:08:05;37.07;;;19.37;;
69712;SDS011;56980;51.826;4.424;2022-08-19T02:10:30;34.50;;;18.92;;
69712;SDS011;56980;51.826;4.424;2022-08-19T02:12:56;43.60;;;21.35;;
69712;SDS011;56980;51.826;4.424;2022-08-19T02:15:22;39.33;;;20.23;;
69712;SDS011;56980;51.826;4.424;2022-08-19T02:17:47;36.40;;;18.67;;
69712;SDS011;56980;51.826;4.424;2022-08-19T02:20:13;36.88;;;20.40;;
69712;SDS011;56980;51.826;4.424;2022-08-19T02:22:40;35.42;;;20.23;;
69712;SDS011;56980;51.826;4.424;2022-08-19T02:25:07;37.97;;;21.23;;
69712;SDS011;56980;51.826;4.424;2022-08-19T02:27:33;40.95;;;20.42;;
69712;SDS011;56980;51.826;4.424;2022-08-19T02:29:59;38.83;;;19.63;;
69712;SDS011;56980;51.826;4.424;2022-08-19T02:32:24;37.03;;;19.97;;
69712;SDS011;56980;51.826;4.424;2022-08-19T02:34:50;34.03;;;18.85;;
69712;SDS011;56980;51.826;4.424;2022-08-19T02:37:15;36.47;;;19.60;;
69712;SDS011;56980;51.826;4.424;2022-08-19T02:40:00;34.85;;;19.25;;
69712;SDS011;56980;51.826;4.424;2022-08-19T02:42:26;37.85;;;20.52;;
69712;SDS011;56980;51.826;4.424;2022-08-19T02:44:51;34.77;;;19.03;;
69712;SDS011;56980;51.826;4.424;2022-08-19T02:47:17;32.63;;;19.03;;
69712;SDS011;56980;51.826;4.424;2022-08-19T02:49:43;32.60;;;19.52;;
69712;SDS011;56980;51.826;4.424;2022-08-19T02:52:09;41.20;;;21.10;;
69712;SDS011;56980;51.826;4.424;2022-08-19T02:54:36;37.57;;;21.07;;
69712;SDS011;56980;51.826;4.424;2022-08-19T02:57:02;39.13;;;20.95;;
69712;SDS011;56980;51.826;4.424;2022-08-19T02:59:29;41.15;;;22.92;;
69712;SDS011;56980;51.826;4.424;2022-08-19T03:01:56;41.07;;;22.60;;
69712;SDS011;56980;51.826;4.424;2022-08-19T03:04:21;43.05;;;22.83;;
69712;SDS011;56980;51.826;4.424;2022-08-19T03:06:48;44.05;;;24.73;;
69712;SDS011;56980;51.826;4.424;2022-08-19T03:09:14;50.50;;;25.57;;
69712;SDS011;56980;51.826;4.424;2022-08-19T03:11:40;50.72;;;26.50;;
69712;SDS011;56980;51.826;4.424;2022-08-19T03:14:06;48.77;;;25.27;;
69712;SDS011;56980;51.826;4.424;2022-08-19T03:16:34;57.10;;;28.15;;
69712;SDS011;56980;51.826;4.424;2022-08-19T03:19:05;58.60;;;28.67;;
69712;SDS011;56980;51.826;4.424;2022-08-19T03:21:31;54.37;;;27.30;;
69712;SDS011;56980;51.826;4.424;2022-08-19T03:23:58;58.92;;;29.05;;
69712;SDS011;56980;51.826;4.424;2022-08-19T03:26:26;56.40;;;27.27;;
69712;SDS011;56980;51.826;4.424;2022-08-19T03:28:51;54.43;;;27.53;;
69712;SDS011;56980;51.826;4.424;2022-08-19T03:31:20;54.23;;;27.53;;
69712;SDS011;56980;51.826;4.424;2022-08-19T03:33:50;60.13;;;27.40;;
69712;SDS011;56980;51.826;4.424;2022-08-19T03:36:20;55.28;;;26.10;;
69712;SDS011;56980;51.826;4.424;2022-08-19T03:38:50;51.22;;;26.38;;
69712;SDS011;56980;51.826;4.424;2022-08-19T03:41:20;54.83;;;27.83;;
69712;SDS011;56980;51.826;4.424;2022-08-19T03:43:48;50.75;;;26.40;;
69712;SDS011;56980;51.826;4.424;2022-08-19T03:46:20;49.63;;;26.57;;
69712;SDS011;56980;51.826;4.424;2022-08-19T03:48:51;58.30;;;26.67;;
69712;SDS011;56980;51.826;4.424;2022-08-19T03:53:48;50.47;;;25.52;;
69712;SDS011;56980;51.826;4.424;2022-08-19T03:56:14;46.37;;;25.07;;
69712;SDS011;56980;51.826;4.424;2022-08-19T03:58:40;46.63;;;25.25;;
69712;SDS011;56980;51.826;4.424;2022-08-19T04:01:10;45.63;;;23.50;;
69712;SDS011;56980;51.826;4.424;2022-08-19T04:03:37;47.58;;;25.00;;
69712;SDS011;56980;51.826;4.424;2022-08-19T04:06:17;50.73;;;23.10;;
69712;SDS011;56980;51.826;4.424;2022-08-19T04:08:46;44.70;;;22.77;;
69712;SDS011;56980;51.826;4.424;2022-08-19T04:11:14;42.33;;;22.50;;
69712;SDS011;56980;51.826;4.424;2022-08-19T04:13:41;41.85;;;22.60;;
69712;SDS011;56980;51.826;4.424;2022-08-19T04:16:08;45.20;;;22.55;;
69712;SDS011;56980;51.826;4.424;2022-08-19T04:18:35;42.33;;;21.37;;
69712;SDS011;56980;51.826;4.424;2022-08-19T04:21:01;48.40;;;22.27;;
69712;SDS011;56980;51.826;4.424;2022-08-19T04:23:26;49.57;;;22.53;;
69712;SDS011;56980;51.826;4.424;2022-08-19T04:25:53;45.60;;;23.13;;
69712;SDS011;56980;51.826;4.424;2022-08-19T04:28:19;50.65;;;24.20;;
69712;SDS011;56980;51.826;4.424;2022-08-19T04:30:45;50.03;;;22.47;;
69712;SDS011;56980;51.826;4.424;2022-08-19T04:33:14;52.20;;;22.52;;
69712;SDS011;56980;51.826;4.424;2022-08-19T04:35:44;52.70;;;22.40;;
69712;SDS011;56980;51.826;4.424;2022-08-19T04:38:12;46.78;;;21.92;;
69712;SDS011;56980;51.826;4.424;2022-08-19T04:40:46;47.80;;;21.73;;
69712;SDS011;56980;51.826;4.424;2022-08-19T04:43:32;44.17;;;21.17;;
69712;SDS011;56980;51.826;4.424;2022-08-19T04:46:04;44.70;;;21.27;;
69712;SDS011;56980;51.826;4.424;2022-08-19T04:48:30;44.00;;;20.45;;
69712;SDS011;56980;51.826;4.424;2022-08-19T04:50:56;50.33;;;21.70;;
69712;SDS011;56980;51.826;4.424;2022-08-19T04:53:26;42.75;;;19.85;;
69712;SDS011;56980;51.826;4.424;2022-08-19T04:55:57;48.30;;;21.50;;
69712;SDS011;56980;51.826;4.424;2022-08-19T04:58:24;46.30;;;20.10;;
69712;SDS011;56980;51.826;4.424;2022-08-19T05:00:51;46.42;;;21.20;;
69712;SDS011;56980;51.826;4.424;2022-08-19T05:03:17;40.97;;;19.07;;
69712;SDS011;56980;51.826;4.424;2022-08-19T05:05:46;40.78;;;19.35;;
69712;SDS011;56980;51.826;4.424;2022-08-19T05:08:17;43.85;;;20.02;;
69712;SDS011;56980;51.826;4.424;2022-08-19T05:10:47;48.28;;;20.45;;
69712;SDS011;56980;51.826;4.424;2022-08-19T05:13:14;54.40;;;22.17;;
69712;SDS011;56980;51.826;4.424;2022-08-19T05:15:41;42.85;;;20.05;;
69712;SDS011;56980;51.826;4.424;2022-08-19T05:18:07;47.45;;;19.63;;
69712;SDS011;56980;51.826;4.424;2022-08-19T05:20:51;42.00;;;20.58;;
69712;SDS011;56980;51.826;4.424;2022-08-19T05:23:34;44.47;;;20.35;;
69712;SDS011;56980;51.826;4.424;2022-08-19T05:26:00;39.33;;;21.50;;
69712;SDS011;56980;51.826;4.424;2022-08-19T05:28:25;52.07;;;21.17;;
69712;SDS011;56980;51.826;4.424;2022-08-19T05:30:52;50.03;;;21.65;;
69712;SDS011;56980;51.826;4.424;2022-08-19T05:33:20;41.80;;;20.60;;
69712;SDS011;56980;51.826;4.424;2022-08-19T05:35:46;43.85;;;19.65;;
69712;SDS011;56980;51.826;4.424;2022-08-19T05:38:14;43.05;;;19.67;;
69712;SDS011;56980;51.826;4.424;2022-08-19T05:40:40;49.83;;;21.17;;
69712;SDS011;56980;51.826;4.424;2022-08-19T05:43:06;47.97;;;20.30;;
69712;SDS011;56980;51.826;4.424;2022-08-19T05:45:33;52.67;;;21.55;;
69712;SDS011;56980;51.826;4.424;2022-08-19T05:48:04;42.13;;;19.15;;
69712;SDS011;56980;51.826;4.424;2022-08-19T05:50:29;43.23;;;20.17;;
69712;SDS011;56980;51.826;4.424;2022-08-19T05:52:55;37.20;;;20.00;;
69712;SDS011;56980;51.826;4.424;2022-08-19T05:55:20;36.90;;;19.25;;
69712;SDS011;56980;51.826;4.424;2022-08-19T05:57:47;41.70;;;18.93;;
69712;SDS011;56980;51.826;4.424;2022-08-19T06:00:13;42.22;;;18.85;;
69712;SDS011;56980;51.826;4.424;2022-08-19T06:02:39;37.63;;;18.37;;
69712;SDS011;56980;51.826;4.424;2022-08-19T06:05:05;39.90;;;18.42;;
69712;SDS011;56980;51.826;4.424;2022-08-19T06:07:33;34.40;;;18.25;;
69712;SDS011;56980;51.826;4.424;2022-08-19T06:10:06;38.03;;;18.25;;
69712;SDS011;56980;51.826;4.424;2022-08-19T06:12:33;33.90;;;17.90;;
69712;SDS011;56980;51.826;4.424;2022-08-19T06:15:00;38.67;;;17.20;;
69712;SDS011;56980;51.826;4.424;2022-08-19T06:17:31;40.63;;;18.85;;
69712;SDS011;56980;51.826;4.424;2022-08-19T06:19:59;41.13;;;18.60;;
69712;SDS011;56980;51.826;4.424;2022-08-19T06:22:25;47.23;;;17.87;;
69712;SDS011;56980;51.826;4.424;2022-08-19T06:24:50;45.20;;;18.83;;
69712;SDS011;56980;51.826;4.424;2022-08-19T06:27:18;42.40;;;17.88;;
69712;SDS011;56980;51.826;4.424;2022-08-19T06:29:44;36.83;;;18.17;;
69712;SDS011;56980;51.826;4.424;2022-08-19T06:32:11;42.55;;;18.05;;
69712;SDS011;56980;51.826;4.424;2022-08-19T06:34:36;35.73;;;17.67;;
69712;SDS011;56980;51.826;4.424;2022-08-19T06:37:02;35.88;;;17.23;;
69712;SDS011;56980;51.826;4.424;2022-08-19T06:39:28;42.53;;;18.87;;
69712;SDS011;56980;51.826;4.424;2022-08-19T06:41:58;46.08;;;18.52;;
69712;SDS011;56980;51.826;4.424;2022-08-19T06:44:26;45.20;;;18.73;;
69712;SDS011;56980;51.826;4.424;2022-08-19T06:46:54;40.92;;;17.90;;
69712;SDS011;56980;51.826;4.424;2022-08-19T06:49:20;40.07;;;17.07;;
69712;SDS011;56980;51.826;4.424;2022-08-19T06:51:47;44.53;;;18.45;;
69712;SDS011;56980;51.826;4.424;2022-08-19T06:54:14;33.88;;;16.92;;
69712;SDS011;56980;51.826;4.424;2022-08-19T06:56:41;35.53;;;17.73;;
69712;SDS011;56980;51.826;4.424;2022-08-19T06:59:18;34.28;;;16.52;;
69712;SDS011;56980;51.826;4.424;2022-08-19T07:01:50;39.77;;;18.57;;
69712;SDS011;56980;51.826;4.424;2022-08-19T07:04:17;33.55;;;15.63;;
69712;SDS011;56980;51.826;4.424;2022-08-19T07:06:45;33.03;;;17.52;;
69712;SDS011;56980;51.826;4.424;2022-08-19T07:09:12;34.05;;;16.15;;
69712;SDS011;56980;51.826;4.424;2022-08-19T07:11:42;30.88;;;16.33;;
69712;SDS011;56980;51.826;4.424;2022-08-19T07:14:17;31.40;;;16.17;;
69712;SDS011;56980;51.826;4.424;2022-08-19T07:16:44;32.20;;;16.13;;
69712;SDS011;56980;51.826;4.424;2022-08-19T07:19:11;31.17;;;16.02;;
69712;SDS011;56980;51.826;4.424;2022-08-19T07:21:37;29.42;;;15.18;;
69712;SDS011;56980;51.826;4.424;2022-08-19T07:24:03;33.40;;;16.07;;
69712;SDS011;56980;51.826;4.424;2022-08-19T07:26:33;29.83;;;14.68;;
69712;SDS011;56980;51.826;4.424;2022-08-19T07:29:03;35.20;;;15.98;;
69712;SDS011;56980;51.826;4.424;2022-08-19T07:31:29;32.83;;;15.98;;
69712;SDS011;56980;51.826;4.424;2022-08-19T07:33:55;33.37;;;15.87;;
69712;SDS011;56980;51.826;4.424;2022-08-19T07:36:23;29.13;;;16.20;;
69712;SDS011;56980;51.826;4.424;2022-08-19T07:38:51;30.77;;;15.83;;
69712;SDS011;56980;51.826;4.424;2022-08-19T07:41:18;34.05;;;15.40;;
69712;SDS011;56980;51.826;4.424;2022-08-19T07:43:46;33.78;;;15.88;;
69712;SDS011;56980;51.826;4.424;2022-08-19T07:46:12;26.80;;;15.48;;
69712;SDS011;56980;51.826;4.424;2022-08-19T07:48:38;33.30;;;16.30;;
69712;SDS011;56980;51.826;4.424;2022-08-19T07:51:06;32.85;;;14.45;;
69712;SDS011;56980;51.826;4.424;2022-08-19T07:53:33;25.25;;;14.75;;
69712;SDS011;56980;51.826;4.424;2022-08-19T07:56:00;24.20;;;15.43;;
69712;SDS011;56980;51.826;4.424;2022-08-19T07:58:27;29.38;;;15.50;;
69712;SDS011;56980;51.826;4.424;2022-08-19T08:00:53;28.03;;;15.03;;
69712;SDS011;56980;51.826;4.424;2022-08-19T08:03:20;24.33;;;14.97;;
69712;SDS011;56980;51.826;4.424;2022-08-19T08:06:10;28.47;;;13.67;;
69712;SDS011;56980;51.826;4.424;2022-08-19T08:08:54;28.65;;;14.65;;
69712;SDS011;56980;51.826;4.424;2022-08-19T08:11:35;26.60;;;12.82;;
69712;SDS011;56980;51.826;4.424;2022-08-19T08:14:01;20.73;;;12.13;;
69712;SDS011;56980;51.826;4.424;2022-08-19T08:16:27;22.57;;;12.73;;
69712;SDS011;56980;51.826;4.424;2022-08-19T08:18:56;23.95;;;12.70;;
69712;SDS011;56980;51.826;4.424;2022-08-19T08:21:21;24.45;;;12.68;;
69712;SDS011;56980;51.826;4.424;2022-08-19T08:23:46;29.10;;;11.77;;
69712;SDS011;56980;51.826;4.424;2022-08-19T08:26:12;24.47;;;10.93;;
69712;SDS011;56980;51.826;4.424;2022-08-19T08:28:39;24.50;;;10.48;;
69712;SDS011;56980;51.826;4.424;2022-08-19T08:31:04;17.57;;;10.47;;
69712;SDS011;56980;51.826;4.424;2022-08-19T08:33:30;16.73;;;9.53;;
69712;SDS011;56980;51.826;4.424;2022-08-19T08:35:56;21.47;;;9.40;;
69712;SDS011;56980;51.826;4.424;2022-08-19T08:38:21;37.45;;;10.43;;
69712;SDS011;56980;51.826;4.424;2022-08-19T08:40:48;25.40;;;10.38;;
69712;SDS011;56980;51.826;4.424;2022-08-19T08:43:28;18.75;;;9.40;;
69712;SDS011;56980;51.826;4.424;2022-08-19T08:46:11;27.02;;;9.82;;
69712;SDS011;56980;51.826;4.424;2022-08-19T08:48:51;14.63;;;8.60;;
69712;SDS011;56980;51.826;4.424;2022-08-19T08:51:23;15.85;;;8.77;;
69712;SDS011;56980;51.826;4.424;2022-08-19T08:53:52;18.15;;;9.05;;
69712;SDS011;56980;51.826;4.424;2022-08-19T08:56:19;20.83;;;9.65;;
69712;SDS011;56980;51.826;4.424;2022-08-19T08:58:47;19.30;;;8.93;;
69712;SDS011;56980;51.826;4.424;2022-08-19T09:01:19;16.77;;;8.60;;
69712;SDS011;56980;51.826;4.424;2022-08-19T09:03:45;14.07;;;7.50;;
69712;SDS011;56980;51.826;4.424;2022-08-19T09:11:40;19.13;;;8.77;;
69712;SDS011;56980;51.826;4.424;2022-08-19T09:17:08;12.98;;;5.50;;
69712;SDS011;56980;51.826;4.424;2022-08-19T09:19:35;11.32;;;5.32;;
69712;SDS011;56980;51.826;4.424;2022-08-19T09:22:12;11.60;;;4.80;;
69712;SDS011;56980;51.826;4.424;2022-08-19T09:24:37;11.10;;;5.60;;
69712;SDS011;56980;51.826;4.424;2022-08-19T09:27:03;7.30;;;4.53;;
69712;SDS011;56980;51.826;4.424;2022-08-19T09:29:29;9.65;;;5.05;;
69712;SDS011;56980;51.826;4.424;2022-08-19T09:31:54;10.37;;;4.50;;
69712;SDS011;56980;51.826;4.424;2022-08-19T09:34:19;8.93;;;4.87;;
69712;SDS011;56980;51.826;4.424;2022-08-19T09:36:45;9.90;;;5.30;;
69712;SDS011;56980;51.826;4.424;2022-08-19T09:39:10;9.17;;;4.97;;
69712;SDS011;56980;51.826;4.424;2022-08-19T09:41:36;7.78;;;4.80;;
69712;SDS011;56980;51.826;4.424;2022-08-19T09:44:01;7.37;;;4.30;;
69712;SDS011;56980;51.826;4.424;2022-08-19T09:46:28;9.17;;;4.93;;
69712;SDS011;56980;51.826;4.424;2022-08-19T09:48:56;9.50;;;4.00;;
69712;SDS011;56980;51.826;4.424;2022-08-19T09:51:24;8.52;;;4.20;;
69712;SDS011;56980;51.826;4.424;2022-08-19T09:53:53;9.20;;;3.58;;
69712;SDS011;56980;51.826;4.424;2022-08-19T09:56:19;6.97;;;3.87;;
69712;SDS011;56980;51.826;4.424;2022-08-19T09:58:45;5.40;;;3.85;;
69712;SDS011;56980;51.826;4.424;2022-08-19T10:01:16;8.02;;;3.53;;
69712;SDS011;56980;51.826;4.424;2022-08-19T10:03:44;6.65;;;3.20;;
69712;SDS011;56980;51.826;4.424;2022-08-19T10:06:13;6.85;;;3.60;;
69712;SDS011;56980;51.826;4.424;2022-08-19T10:08:38;5.03;;;3.50;;
69712;SDS011;56980;51.826;4.424;2022-08-19T10:11:04;6.67;;;3.00;;
69712;SDS011;56980;51.826;4.424;2022-08-19T10:13:31;4.38;;;2.78;;
69712;SDS011;56980;51.826;4.424;2022-08-19T10:16:04;5.10;;;2.80;;
69712;SDS011;56980;51.826;4.424;2022-08-19T10:18:32;5.25;;;2.38;;
69712;SDS011;56980;51.826;4.424;2022-08-19T10:21:06;4.00;;;2.33;;
69712;SDS011;56980;51.826;4.424;2022-08-19T10:23:35;3.53;;;2.42;;
69712;SDS011;56980;51.826;4.424;2022-08-19T10:26:03;3.20;;;2.20;;
69712;SDS011;56980;51.826;4.424;2022-08-19T10:28:35;3.15;;;1.70;;
69712;SDS011;56980;51.826;4.424;2022-08-19T10:31:05;4.70;;;1.55;;
69712;SDS011;56980;51.826;4.424;2022-08-19T10:33:35;4.23;;;1.60;;
69712;SDS011;56980;51.826;4.424;2022-08-19T10:36:05;2.97;;;1.70;;
69712;SDS011;56980;51.826;4.424;2022-08-19T10:38:34;4.35;;;2.38;;
69712;SDS011;56980;51.826;4.424;2022-08-19T10:41:07;3.67;;;2.00;;
69712;SDS011;56980;51.826;4.424;2022-08-19T10:43:37;3.95;;;1.95;;
69712;SDS011;56980;51.826;4.424;2022-08-19T10:46:08;6.07;;;1.70;;
69712;SDS011;56980;51.826;4.424;2022-08-19T10:48:35;5.60;;;2.10;;
69712;SDS011;56980;51.826;4.424;2022-08-19T10:51:00;2.60;;;1.67;;
69712;SDS011;56980;51.826;4.424;2022-08-19T10:53:45;4.97;;;1.90;;
69712;SDS011;56980;51.826;4.424;2022-08-19T10:56:11;3.00;;;1.73;;
69712;SDS011;56980;51.826;4.424;2022-08-19T10:58:54;8.27;;;3.07;;
69712;SDS011;56980;51.826;4.424;2022-08-19T11:01:21;7.03;;;4.10;;
69712;SDS011;56980;51.826;4.424;2022-08-19T11:03:47;15.50;;;6.20;;
69712;SDS011;56980;51.826;4.424;2022-08-19T11:06:12;11.57;;;6.13;;
69712;SDS011;56980;51.826;4.424;2022-08-19T11:08:37;9.85;;;6.80;;
69712;SDS011;56980;51.826;4.424;2022-08-19T11:11:04;10.50;;;6.87;;
69712;SDS011;56980;51.826;4.424;2022-08-19T11:13:32;10.07;;;6.45;;
69712;SDS011;56980;51.826;4.424;2022-08-19T11:18:29;8.60;;;5.80;;
69712;SDS011;56980;51.826;4.424;2022-08-19T11:20:54;15.10;;;5.57;;
69712;SDS011;56980;51.826;4.424;2022-08-19T11:23:19;9.93;;;5.57;;
69712;SDS011;56980;51.826;4.424;2022-08-19T11:25:45;7.70;;;5.37;;
69712;SDS011;56980;51.826;4.424;2022-08-19T11:28:11;5.65;;;4.10;;
69712;SDS011;56980;51.826;4.424;2022-08-19T11:30:38;7.03;;;3.90;;
69712;SDS011;56980;51.826;4.424;2022-08-19T11:33:04;6.32;;;4.68;;
69712;SDS011;56980;51.826;4.424;2022-08-19T11:35:30;5.87;;;4.20;;
69712;SDS011;56980;51.826;4.424;2022-08-19T11:37:56;9.18;;;6.25;;
69712;SDS011;56980;51.826;4.424;2022-08-19T11:40:26;13.90;;;6.60;;
69712;SDS011;56980;51.826;4.424;2022-08-19T11:42:52;12.18;;;8.30;;
69712;SDS011;56980;51.826;4.424;2022-08-19T11:45:21;14.73;;;8.50;;
69712;SDS011;56980;51.826;4.424;2022-08-19T11:47:47;13.07;;;7.75;;
69712;SDS011;56980;51.826;4.424;2022-08-19T11:50:13;9.77;;;7.57;;
69712;SDS011;56980;51.826;4.424;2022-08-19T11:52:39;10.27;;;7.00;;
69712;SDS011;56980;51.826;4.424;2022-08-19T11:55:05;10.00;;;7.13;;
69712;SDS011;56980;51.826;4.424;2022-08-19T11:57:31;9.88;;;6.75;;
69712;SDS011;56980;51.826;4.424;2022-08-19T11:59:57;9.13;;;6.77;;
69712;SDS011;56980;51.826;4.424;2022-08-19T12:02:22;9.73;;;7.57;;
69712;SDS011;56980;51.826;4.424;2022-08-19T12:04:48;11.38;;;7.32;;
69712;SDS011;56980;51.826;4.424;2022-08-19T12:07:14;12.33;;;9.13;;
69712;SDS011;56980;51.826;4.424;2022-08-19T12:09:39;15.77;;;10.00;;
69712;SDS011;56980;51.826;4.424;2022-08-19T12:12:05;21.73;;;11.30;;
69712;SDS011;56980;51.826;4.424;2022-08-19T12:14:30;20.67;;;11.90;;
69712;SDS011;56980;51.826;4.424;2022-08-19T12:16:56;21.77;;;11.88;;
69712;SDS011;56980;51.826;4.424;2022-08-19T12:19:22;19.67;;;10.90;;
69712;SDS011;56980;51.826;4.424;2022-08-19T12:21:50;19.38;;;10.88;;
69712;SDS011;56980;51.826;4.424;2022-08-19T12:24:16;19.63;;;12.10;;
69712;SDS011;56980;51.826;4.424;2022-08-19T12:26:47;17.30;;;10.80;;
69712;SDS011;56980;51.826;4.424;2022-08-19T12:29:14;17.30;;;11.25;;
69712;SDS011;56980;51.826;4.424;2022-08-19T12:31:39;20.67;;;12.32;;
69712;SDS011;56980;51.826;4.424;2022-08-19T12:34:05;18.60;;;12.20;;
69712;SDS011;56980;51.826;4.424;2022-08-19T12:36:30;17.90;;;11.40;;
69712;SDS011;56980;51.826;4.424;2022-08-19T12:38:57;17.37;;;11.40;;
69712;SDS011;56980;51.826;4.424;2022-08-19T12:41:24;15.63;;;10.25;;
69712;SDS011;56980;51.826;4.424;2022-08-19T12:43:50;18.50;;;10.63;;
69712;SDS011;56980;51.826;4.424;2022-08-19T12:46:16;16.27;;;9.60;;
69712;SDS011;56980;51.826;4.424;2022-08-19T12:48:42;11.82;;;6.97;;
69712;SDS011;56980;51.826;4.424;2022-08-19T12:51:11;14.18;;;7.55;;
69712;SDS011;56980;51.826;4.424;2022-08-19T12:53:39;8.30;;;5.35;;
69712;SDS011;56980;51.826;4.424;2022-08-19T12:56:05;9.87;;;5.07;;
69712;SDS011;56980;51.826;4.424;2022-08-19T12:58:31;6.88;;;4.70;;
69712;SDS011;56980;51.826;4.424;2022-08-19T13:00:59;5.30;;;4.00;;
69712;SDS011;56980;51.826;4.424;2022-08-19T13:03:24;9.23;;;3.70;;
69712;SDS011;56980;51.826;4.424;2022-08-19T13:05:54;10.00;;;5.35;;
69712;SDS011;56980;51.826;4.424;2022-08-19T13:08:20;10.70;;;6.45;;
69712;SDS011;56980;51.826;4.424;2022-08-19T13:10:45;11.00;;;5.93;;
69712;SDS011;56980;51.826;4.424;2022-08-19T13:13:11;10.30;;;6.63;;
69712;SDS011;56980;51.826;4.424;2022-08-19T13:15:39;11.07;;;6.80;;
69712;SDS011;56980;51.826;4.424;2022-08-19T13:18:09;11.68;;;7.30;;
69712;SDS011;56980;51.826;4.424;2022-08-19T13:20:36;11.07;;;7.38;;
69712;SDS011;56980;51.826;4.424;2022-08-19T13:23:03;10.07;;;7.13;;
69712;SDS011;56980;51.826;4.424;2022-08-19T13:25:29;11.10;;;6.50;;
69712;SDS011;56980;51.826;4.424;2022-08-19T13:27:55;11.00;;;6.43;;
69712;SDS011;56980;51.826;4.424;2022-08-19T13:30:20;10.57;;;6.10;;
69712;SDS011;56980;51.826;4.424;2022-08-19T13:33:06;8.95;;;5.32;;
69712;SDS011;56980;51.826;4.424;2022-08-19T13:38:08;4.22;;;2.97;;
69712;SDS011;56980;51.826;4.424;2022-08-19T13:40:35;5.30;;;3.00;;
69712;SDS011;56980;51.826;4.424;2022-08-19T13:43:02;5.57;;;2.50;;
69712;SDS011;56980;51.826;4.424;2022-08-19T13:45:30;7.95;;;2.65;;
69712;SDS011;56980;51.826;4.424;2022-08-19T13:48:01;4.07;;;1.90;;
69712;SDS011;56980;51.826;4.424;2022-08-19T13:50:31;3.47;;;2.20;;
69712;SDS011;56980;51.826;4.424;2022-08-19T13:52:58;5.70;;;2.08;;
69712;SDS011;56980;51.826;4.424;2022-08-19T13:55:24;3.13;;;1.63;;
69712;SDS011;56980;51.826;4.424;2022-08-19T13:57:59;4.38;;;1.70;;
69712;SDS011;56980;51.826;4.424;2022-08-19T14:00:27;6.13;;;1.90;;
69712;SDS011;56980;51.826;4.424;2022-08-19T14:02:56;9.98;;;2.47;;
69712;SDS011;56980;51.826;4.424;2022-08-19T14:05:23;5.10;;;2.10;;
69712;SDS011;56980;51.826;4.424;2022-08-19T14:07:49;4.30;;;2.40;;
69712;SDS011;56980;51.826;4.424;2022-08-19T14:10:15;5.80;;;2.23;;
69712;SDS011;56980;51.826;4.424;2022-08-19T14:12:41;7.80;;;1.95;;
69712;SDS011;56980;51.826;4.424;2022-08-19T14:15:07;5.10;;;2.00;;
69712;SDS011;56980;51.826;4.424;2022-08-19T14:17:36;3.38;;;1.83;;
69712;SDS011;56980;51.826;4.424;2022-08-19T14:20:04;5.38;;;2.17;;
69712;SDS011;56980;51.826;4.424;2022-08-19T14:22:36;5.55;;;2.22;;
69712;SDS011;56980;51.826;4.424;2022-08-19T14:25:04;7.63;;;3.20;;
69712;SDS011;56980;51.826;4.424;2022-08-19T14:27:38;5.38;;;2.72;;
69712;SDS011;56980;51.826;4.424;2022-08-19T14:30:06;4.93;;;2.80;;
69712;SDS011;56980;51.826;4.424;2022-08-19T14:32:34;5.30;;;2.30;;
69712;SDS011;56980;51.826;4.424;2022-08-19T14:35:00;6.10;;;2.53;;
69712;SDS011;56980;51.826;4.424;2022-08-19T14:37:29;4.80;;;2.53;;
69712;SDS011;56980;51.826;4.424;2022-08-19T14:39:54;3.83;;;2.17;;
69712;SDS011;56980;51.826;4.424;2022-08-19T14:42:19;6.40;;;1.70;;
69712;SDS011;56980;51.826;4.424;2022-08-19T14:44:45;8.80;;;2.83;;
69712;SDS011;56980;51.826;4.424;2022-08-19T14:47:10;10.33;;;3.30;;
69712;SDS011;56980;51.826;4.424;2022-08-19T14:49:36;9.67;;;2.60;;
69712;SDS011;56980;51.826;4.424;2022-08-19T14:52:02;9.32;;;2.85;;